This is the latest recevied weather packets stored in our database for station/object LRSV. If no packets are shown the sender has not sent any weather packets the latest 10 day(s).
| Time | Temp. | Humidity | Pressure | Rain* | Wind** | Luminosity | Snow |
|---|---|---|---|---|---|---|---|
| 1777871010 | 16.11° C | 42% | 1017 hPa | - | - | - | - |
| 1777870101 | 15° C | 45% | 1017 hPa | - | - | - | - |
| 1777869200 | 15° C | 45% | 1017 hPa | - | - | - | - |
| 1777868300 | 13.89° C | 48% | 1016 hPa | - | - | - | - |
| 1777867400 | 13.89° C | 48% | 1016 hPa | - | - | - | - |
| 1777866501 | 12.78° C | 51% | 1016 hPa | - | - | - | - |
| 1777865600 | 12.78° C | 51% | 1016 hPa | - | - | - | - |
| 1777864700 | 12.78° C | 51% | 1016 hPa | - | - | - | - |
| 1777863878 | 12.78° C | 51% | 1016 hPa | - | - | - | - |
| 1777862901 | 12.78° C | 51% | 1016 hPa | - | - | - | - |
| 1777862000 | 12.78° C | 51% | 1016 hPa | - | - | - | - |
| 1777861100 | 12.78° C | 51% | 1016 hPa | - | - | - | - |
| 1777860201 | 12.78° C | 51% | 1016 hPa | - | - | - | - |
| 1777859301 | 13.89° C | 48% | 1016 hPa | - | - | - | - |
| 1777858405 | 13.89° C | 48% | 1016 hPa | - | - | - | - |
| 1777857577 | 12.22° C | 54% | 1016 hPa | - | - | - | - |
| 1777856600 | 12.22° C | 54% | 1016 hPa | - | - | - | - |
| 1777855777 | 11.11° C | 58% | 1016 hPa | - | - | - | - |
| 1777854800 | 11.11° C | 58% | 1016 hPa | - | - | - | - |
| 1777853900 | 11.11° C | 58% | 1016 hPa | - | - | - | - |
| 1777853001 | 11.11° C | 58% | 1016 hPa | - | - | - | - |
| 1777852140 | 8.89° C | 66% | 1016 hPa | - | - | - | - |
| 1777851200 | 8.89° C | 66% | 1016 hPa | - | - | - | - |
| 1777850304 | 10° C | 62% | 1016 hPa | - | - | - | - |
| 1777849413 | 10° C | 62% | 1016 hPa | - | - | - | - |
* Rain since midnight (hover to see other rain measurements)
** Current wind speed in m/s (hover to see current wind gust speed)